• Join FlightAware (Why Join?)
  • Login
  • US Flag 
04:39PM EST


 

Airport Tracker/Info


-or-


 

Live Flight TrackerFlight Track Log ✈ N700MP ✈ 03-May-2013 ✈ KOPF - KPTK

Flight Track Log - Related Links

Times and Time Zones

All times are in EDT time to prevent confusion due to time zone crossing. See the N700MP flight status page for this flight to view local times or setup timezone preferences in your user account.

Time Position Orientation Groundspeed Altitude Reporting Facility
EDT Latitude Longitude Course Direction KTS MPH feet Rate Location/Type
02:43PM 25.9106 -80.2961 336° Northwest 154 177 400  Level Miami Center
02:44PM 25.9239 -80.3428 288° West 229 264 1,600 2,040 Climbing Miami Center
02:45PM 25.9725 -80.4064 310° West 261 300 4,200 2,580 Climbing Miami Center
02:46PM 26.0422 -80.4617 325° Northwest 247 284 7,400 2,400 Climbing Miami Center
02:47PM 26.1067 -80.4753 349° North 271 312 9,400 1,980 Climbing Miami Center
02:48PM 26.1906 -80.4569 11° North 272 313 11,400 1,800 Climbing Miami Center
02:49PM 26.5494 -80.5747 336° Northwest  Level FlightAware Approximate
02:49PM 26.2808 -80.4458 North 297 342 13,100  Level Miami Center
02:50PM 26.3814 -80.4350 North 347 399 14,700 1,500 Climbing Miami Center
02:51PM 26.4786 -80.4681 343° North 352 405 16,100 1,500 Climbing Miami Center
02:52PM 26.5803 -80.4967 346° North 362 417 17,700 1,560 Climbing Miami Center
02:53PM 26.6817 -80.5278 345° North 376 433 19,300 1,500 Climbing Miami Center
02:54PM 26.7750 -80.5539 346° North 382 440 20,700 1,260 Climbing Miami Center
02:55PM 26.8933 -80.5881 346° North 387 445 21,900 1,080 Climbing Miami Center
02:56PM 27.0031 -80.6217 345° North 393 452 22,900 960 Climbing Miami Center
02:57PM 27.1131 -80.6511 347° North 399 459 23,900 960 Climbing Miami Center
02:58PM 27.2269 -80.6850 345° North 405 466 24,900 1,020 Climbing Miami Center
02:59PM 27.3408 -80.7169 346° North 415 478 26,000 1,140 Climbing Miami Center
03:00PM 27.4569 -80.7489 346° North 415 478 27,200 1,080 Climbing Miami Center
03:01PM 27.5753 -80.7692 351° North 420 483 28,200 960 Climbing Miami Center
03:02PM 27.6964 -80.7733 358° North 426 490 29,200 1,080 Climbing Miami Center
03:03PM 27.8147 -80.7892 353° North 426 490 30,400 1,020 Climbing Miami Center
03:04PM 27.9183 -80.8256 343° North 426 490 31,300 840 Climbing Miami Center
03:05PM 28.0319 -80.8672 342° North 426 490 32,100 780 Climbing Miami Center
03:06PM 28.1456 -80.9067 343° North 426 490 32,900 840 Climbing Miami Center
03:07PM 28.2633 -80.9508 342° North 426 490 33,800 780 Climbing Miami Center
03:08PM 28.3789 -80.9953 341° North 432 497 34,500 600 Climbing Miami Center
03:09PM 28.4925 -81.0347 343° North 432 497 35,000 540 Climbing Miami Center
03:10PM 28.6100 -81.0794 342° North 437 503 35,600 540 Climbing Miami Center
03:11PM 28.6989 -81.1128 342° North 429 494 36,000 480 Climbing Jacksonville Center
03:12PM 28.8206 -81.1436 347° North 429 494 36,500 480 Climbing Jacksonville Center
03:13PM 28.9439 -81.1606 353° North 434 499 37,000 540 Climbing Jacksonville Center
03:14PM 29.0692 -81.1678 357° North 441 507 37,600 540 Climbing Jacksonville Center
03:15PM 29.1967 -81.1775 356° North 447 514 38,100 420 Climbing Jacksonville Center
03:16PM 29.3197 -81.1850 357° North 447 514 38,500 360 Climbing Jacksonville Center
03:17PM 29.4472 -81.1922 357° North 447 514 38,900 240 Climbing Jacksonville Center
03:18PM 29.5706 -81.2019 356° North 440 506 39,000  Climbing Jacksonville Center
03:19PM 29.6981 -81.2117 356° North 450 518 39,000  Level Jacksonville Center
03:20PM 29.8297 -81.2214 356° North 460 529 39,000  Level Jacksonville Center
03:21PM 29.9592 -81.2289 357° North 465 535 39,000  Level Jacksonville Center
03:22PM 30.0908 -81.2386 356° North 465 535 39,000  Level Jacksonville Center
03:23PM 30.2225 -81.2483 356° North 460 529 39,000  Level Jacksonville Center
03:24PM 30.3561 -81.2556 357° North 467 537 39,000  Level Jacksonville Center
03:25PM 30.4878 -81.2678 355° North 467 537 39,000  Level Jacksonville Center
03:26PM 30.6239 -81.2775 356° North 474 545 39,000  Level Jacksonville Center
03:27PM 30.7556 -81.2897 355° North 479 551 39,000  Level Jacksonville Center
03:28PM 30.8911 -81.2972 357° North 479 551 39,000  Level Jacksonville Center
03:29PM 31.0250 -81.3094 356° North 479 551 39,000  Level Jacksonville Center
03:30PM 31.1567 -81.3194 356° North 479 551 39,000  Level Jacksonville Center
03:31PM 31.2903 -81.3269 357° North 479 551 39,000  Level Jacksonville Center
03:32PM 31.4367 -81.3367 357° North 473 544 39,000  Level Jacksonville Center
03:33PM 31.5683 -81.3467 356° North 480 552 39,000  Level Jacksonville Center
03:34PM 31.6894 -81.3544 357° North 480 552 39,000  Level Jacksonville Center
03:35PM 31.8358 -81.3667 356° North 480 552 39,000  Level Jacksonville Center
03:36PM 31.9592 -81.3769 356° North 480 552 39,000  Level Jacksonville Center
03:37PM 32.0889 -81.3919 354° North 468 539 39,000  Level Jacksonville Center
03:38PM 32.2414 -81.4017 357° North 492 566 39,000  Level Jacksonville Center
03:39PM 32.3750 -81.4092 357° North 484 557 39,000  Level Jacksonville Center
03:40PM 32.4961 -81.4172 357° North 479 551 39,000  Level Jacksonville Center
03:41PM 32.6425 -81.4272 357° North 479 551 39,000  Level Jacksonville Center
03:42PM 32.7656 -81.4350 357° North 479 551 39,000  Level Jacksonville Center
03:43PM 32.9014 -81.4478 355° North 479 551 39,000  Level Jacksonville Center
03:44PM 33.0372 -81.4578 356° North 484 557 39,000  Level Jacksonville Center
03:45PM 33.1731 -81.4681 356° North 484 557 39,000  Level Jacksonville Center
03:46PM 33.3172 -81.4758 357° North 478 550 39,000  Level Jacksonville Center
03:47PM 33.4531 -81.4861 356° North 478 550 39,000  Level Jacksonville Center
03:48PM 33.5844 -81.4964 356° North 478 550 39,000  Level Jacksonville Center
03:50PM 33.7956 -81.5142 356° North 501 577 39,000  Level Atlanta Center
03:51PM 33.9272 -81.5228 357° North 495 570 39,000  Level Atlanta Center
03:52PM 34.0608 -81.5339 356° North 483 556 39,000  Level Atlanta Center
03:53PM 34.2092 -81.5444 357° North 482 555 39,000  Level Atlanta Center
03:54PM 34.3431 -81.5556 356° North 482 555 39,000  Level Atlanta Center
03:55PM 34.4811 -81.5642 357° North 482 555 39,000  Level Atlanta Center
03:56PM 34.6147 -81.5753 356° North 482 555 39,000  Level Atlanta Center
03:57PM 34.7361 -81.5894 355° North 482 555 39,000  Level Atlanta Center
03:58PM 34.8719 -81.6008 356° North 487 560 39,000  Level Atlanta Center
03:59PM 35.0225 -81.6142 356° North 487 560 39,000  Level Atlanta Center
04:00PM 35.1583 -81.6253 356° North 482 555 39,000  Level Atlanta Center
04:01PM 35.2922 -81.6367 356° North 482 555 39,000  Level Atlanta Center
04:02PM 35.4300 -81.6453 357° North 487 560 39,000  Level Atlanta Center
04:03PM 35.5678 -81.6567 356° North 487 560 39,000  Level Atlanta Center
04:04PM 35.6869 -81.6686 355° North 487 560 39,000  Level Atlanta Center
04:05PM 35.8228 -81.6775 357° North 487 560 39,000  Level Atlanta Center
04:06PM 35.9564 -81.6864 357° North 482 555 39,000  Level Atlanta Center
04:07PM 36.0903 -81.6981 356° North 477 549 39,000  Level Atlanta Center
04:08PM 36.2364 -81.7067 357° North 477 549 39,000  Level Atlanta Center
04:09PM 36.3700 -81.7208 355° North 484 557 39,000  Level Atlanta Center
04:10PM 36.5039 -81.7322 356° North 478 550 39,000  Level Atlanta Center
04:11PM 36.6247 -81.7392 357° North 478 550 39,000  Level Atlanta Center
04:13PM 36.9819 -81.7697 356° North 487 560 39,000  Level Indianapolis Center
04:14PM 37.1169 -81.7808 356° North 485 558 39,000  Level Indianapolis Center
04:15PM 37.2525 -81.7928 356° North 487 560 39,000  Level Indianapolis Center
04:16PM 37.3869 -81.8044 356° North 485 558 39,000  Level Indianapolis Center
04:17PM 37.5200 -81.8153 356° North 480 552 39,000  Level Indianapolis Center
04:18PM 37.6756 -81.8286 356° North 479 551 39,000  Level Indianapolis Center
04:19PM 37.8092 -81.8403 356° North 480 552 39,000  Level Indianapolis Center
04:20PM 37.9256 -81.8492 357° North 474 545 39,000  Level Indianapolis Center
04:22PM 38.0597 -81.8619 356° North 479 551 39,000  Level Indianapolis Center
04:23PM 38.2200 -81.8753 356° North 477 549 39,000  Level Indianapolis Center
04:24PM 38.3522 -81.8869 356° North 475 547 39,000  Level Indianapolis Center
04:25PM 38.4847 -81.8992 356° North 474 545 39,000  Level Indianapolis Center
04:26PM 38.6167 -81.9097 356° North 470 541 39,000  Level Indianapolis Center
04:27PM 38.7500 -81.9222 356° North 472 543 39,000  Level Indianapolis Center
04:28PM 38.8819 -81.9331 356° North 469 540 39,000  Level Indianapolis Center
04:29PM 39.0136 -81.9492 355° North 471 542 39,000  Level Indianapolis Center
04:30PM 39.1431 -81.9811 349° North 467 537 39,000  Level Indianapolis Center
04:31PM 39.2725 -82.0092 350° North 474 545 39,000  Level Indianapolis Center
04:32PM 39.4264 -82.0453 350° North 469 540 39,000  Level Indianapolis Center
04:33PM 39.5553 -82.0733 350° North 469 540 39,000  Level Indianapolis Center
04:34PM 39.6833 -82.1036 350° North 467 537 39,000 -300 Level Indianapolis Center
04:35PM 39.8153 -82.1331 350° North 465 535 38,500 -960 Descending Indianapolis Center
04:36PM 39.9453 -82.1644 350° North 472 543 37,100 -1,380 Descending Indianapolis Center
04:37PM 40.0750 -82.1950 350° North 471 542 35,700 -1,680 Descending Indianapolis Center
04:38PM 40.2072 -82.2256 350° North 478 550 33,700 -1,860 Descending Indianapolis Center
04:39PM 40.3392 -82.2586 349° North 480 552 31,900 -1,800 Descending Indianapolis Center
04:40PM 40.4911 -82.2953 350° North 474 545 30,000 -960 Descending Indianapolis Center
04:41PM 40.6136 -82.3225 350° North 446 513 30,000  Level Indianapolis Center
04:42PM 40.6708 -82.3350 351° North 441 507 30,000 -660 Level Cleveland Center
04:43PM 40.7933 -82.3658 349° North 441 507 29,000 -2,040 Descending Cleveland Center
04:44PM 40.9219 -82.3967 350° North 459 528 26,000 -2,520 Descending Cleveland Center
04:45PM 41.0636 -82.4033 358° North 469 540 24,000 -1,560 Descending Cleveland Center
04:46PM 41.1650 -82.3153 33° Northeast 428 493 22,900 -1,980 Descending Cleveland Center
04:47PM 41.2706 -82.2297 31° Northeast 428 493 20,100 -2,220 Descending Cleveland Center
04:48PM 41.3881 -82.1800 18° North 437 503 18,500 -1,500 Descending Cleveland Center
04:49PM 41.5069 -82.1775 North 430 495 17,100 -1,440 Descending Cleveland Center
04:50PM 41.5889 -82.2767 318° Northwest 367 422 15,700 -1,740 Descending Cleveland Center
04:51PM 41.6603 -82.3758 314° West 381 438 13,700 -2,400 Descending Cleveland Center
04:51PM 41.7278 -82.4639 316° Northwest 397 457 11,500 -2,220 Descending Cleveland Center
04:52PM 41.7931 -82.5522 315° West 355 409 10,000 -1,140 Descending Cleveland Center
04:53PM 41.8031 -82.5719 304° West 373 429 10,100 60 Climbing Cleveland Center
04:54PM 41.8664 -82.6381 322° Northwest 270 311 10,100 -720 Level Cleveland Center
04:54PM 41.9244 -82.6678 339° North 288 331 8,900 -1,440 Descending Cleveland Center
04:55PM 41.9428 -82.6769 340° North 288 331 8,500 -2,100 Descending Cleveland Center
04:55PM 42.0131 -82.7156 338° Northwest 317 365 6,800 -1,920 Descending Cleveland Center
04:56PM 42.0233 -82.7186 348° North 299 344 6,600 -1,680 Descending Cleveland Center
04:56PM 42.0894 -82.7572 337° Northwest 299 344 5,100 -1,500 Descending Cleveland Center
04:57PM 42.0978 -82.7603 345° North 299 344 5,100 -120 Level Cleveland Center
04:57PM 42.1594 -82.7961 337° Northwest 272 313 5,000 -120 Descending Cleveland Center
04:58PM 42.1700 -82.8019 338° Northwest 288 331 5,000 60 Level Cleveland Center
04:58PM 42.2297 -82.8322 339° North 279 321 5,100 60 Climbing Cleveland Center
04:59PM 42.2400 -82.8408 328° Northwest 283 326 5,100 -540 Level Cleveland Center
05:00PM 42.3100 -82.8883 333° Northwest 291 335 4,500 -540 Descending Cleveland Center
05:01PM 42.3583 -82.9661 310° West 273 314 4,100 -240 Descending Cleveland Center
05:02PM 42.4131 -83.0439 314° West 272 313 4,100  Level Cleveland Center
05:03PM 42.4633 -83.1247 310° West 271 312 4,100  Level Cleveland Center
05:04PM 42.5117 -83.2028 310° West 264 304 4,100  Level Cleveland Center
05:05PM 42.5581 -83.2753 311° West 253 291 4,100  Level Cleveland Center
05:06PM 42.6003 -83.3361 313° West 240 276 4,100  Level Cleveland Center
05:07PM 42.6089 -83.4156 278° West 192 221 4,100  Level Cleveland Center